createdAt,value
2019-04-01T00:00:48.541Z,9.73
2019-04-01T00:03:17.821Z,9.70
2019-04-01T00:05:46.852Z,9.67
2019-04-01T00:08:16.061Z,9.65
2019-04-01T00:10:45.254Z,9.61
2019-04-01T00:13:14.419Z,9.57
2019-04-01T00:15:43.520Z,9.54
2019-04-01T00:18:12.643Z,9.45
2019-04-01T00:20:41.857Z,9.49
2019-04-01T00:23:11.189Z,9.47
2019-04-01T00:25:40.410Z,9.41
2019-04-01T00:28:09.529Z,9.39
2019-04-01T00:30:38.731Z,9.35
2019-04-01T00:33:07.871Z,9.32
2019-04-01T00:35:37.070Z,9.26
2019-04-01T00:38:06.215Z,9.28
2019-04-01T00:40:35.312Z,9.21
2019-04-01T00:43:23.863Z,9.17
2019-04-01T00:45:53.420Z,9.19
2019-04-01T00:48:22.646Z,9.17
2019-04-01T00:50:51.806Z,9.14
2019-04-01T00:53:20.961Z,9.12
2019-04-01T00:55:50.059Z,9.09
2019-04-01T00:58:19.191Z,9.10
2019-04-01T01:00:48.380Z,9.07
2019-04-01T01:03:17.517Z,9.07
2019-04-01T01:05:46.661Z,9.05
2019-04-01T01:08:15.780Z,9.05
2019-04-01T01:10:44.879Z,9.01
2019-04-01T01:13:14.015Z,9.01
2019-04-01T01:15:43.160Z,8.92
2019-04-01T01:18:12.311Z,8.89
2019-04-01T01:20:41.454Z,8.87
2019-04-01T01:23:10.593Z,8.85
2019-04-01T01:25:39.749Z,8.85
2019-04-01T01:28:08.961Z,8.85
2019-04-01T01:30:38.063Z,8.80
2019-04-01T01:33:07.219Z,8.81
2019-04-01T01:35:36.350Z,8.76
2019-04-01T01:38:05.512Z,8.72
2019-04-01T01:40:34.616Z,8.72
2019-04-01T01:43:03.718Z,8.70
2019-04-01T01:45:32.861Z,8.65
2019-04-01T01:48:01.991Z,8.65
2019-04-01T01:50:31.105Z,8.59
2019-04-01T01:53:00.209Z,8.58
2019-04-01T01:55:29.388Z,8.57
2019-04-01T01:57:58.744Z,8.46
2019-04-01T02:00:28.779Z,8.48
2019-04-01T02:02:57.909Z,8.47
2019-04-01T02:05:27.030Z,8.46
2019-04-01T02:07:56.184Z,8.41
2019-04-01T02:10:25.311Z,8.34
2019-04-01T02:12:54.445Z,8.29
2019-04-01T02:15:23.584Z,8.25
2019-04-01T02:17:52.664Z,8.25
2019-04-01T02:20:21.889Z,8.18
2019-04-01T02:22:51.020Z,8.14
2019-04-01T02:25:20.187Z,8.10
2019-04-01T02:27:49.331Z,8.11
2019-04-01T02:30:18.512Z,8.08
2019-04-01T02:32:47.624Z,8.08
2019-04-01T02:35:16.759Z,8.10
2019-04-01T02:37:45.847Z,8.04
2019-04-01T02:40:15.045Z,8.01
2019-04-01T02:42:44.139Z,7.97
2019-04-01T02:45:13.290Z,8.01
2019-04-01T02:47:42.416Z,7.95
2019-04-01T02:50:11.562Z,7.85
2019-04-01T02:52:40.678Z,7.89
2019-04-01T02:55:09.842Z,7.90
2019-04-01T02:57:39.025Z,7.89
2019-04-01T03:00:08.255Z,7.89
2019-04-01T03:02:37.463Z,7.83
2019-04-01T03:05:07.131Z,7.84
2019-04-01T03:07:36.314Z,7.77
2019-04-01T03:10:05.518Z,7.77
2019-04-01T03:12:34.839Z,7.70
2019-04-01T03:15:04.127Z,7.68
2019-04-01T03:17:33.274Z,7.69
2019-04-01T03:20:02.424Z,7.66
2019-04-01T03:22:31.558Z,7.62
2019-04-01T03:25:00.744Z,7.62
2019-04-01T03:27:29.812Z,7.61
2019-04-01T03:29:58.957Z,7.57
2019-04-01T03:32:28.115Z,7.58
2019-04-01T03:34:57.252Z,7.56
2019-04-01T03:37:26.399Z,7.56
2019-04-01T03:39:55.506Z,7.53
2019-04-01T03:42:24.625Z,7.52
2019-04-01T03:44:55.355Z,7.53
2019-04-01T03:47:24.720Z,7.49
2019-04-01T03:49:53.845Z,7.47
2019-04-01T03:52:23.122Z,7.44
2019-04-01T03:54:52.266Z,7.39
2019-04-01T03:57:21.529Z,7.36
2019-04-01T03:59:50.636Z,7.38
2019-04-01T04:02:19.837Z,7.34
2019-04-01T04:04:49.015Z,7.23
2019-04-01T04:07:18.166Z,7.29
2019-04-01T04:09:47.236Z,7.27
2019-04-01T04:12:16.371Z,7.28
2019-04-01T04:14:45.664Z,7.28
2019-04-01T04:17:14.806Z,7.24
2019-04-01T04:19:43.943Z,7.25
2019-04-01T04:22:13.133Z,7.26
2019-04-01T04:24:42.285Z,7.24
2019-04-01T04:27:11.758Z,7.20
2019-04-01T04:29:40.865Z,7.19
2019-04-01T04:32:10.024Z,7.16
2019-04-01T04:34:39.181Z,7.17
2019-04-01T04:37:08.397Z,7.15
2019-04-01T04:39:37.555Z,7.16
2019-04-01T04:42:06.794Z,7.07
2019-04-01T04:44:35.953Z,7.06
2019-04-01T04:47:05.113Z,7.04
2019-04-01T04:49:34.272Z,7.04
2019-04-01T04:52:04.733Z,7.05
2019-04-01T04:54:34.119Z,7.02
2019-04-01T04:57:03.489Z,7.04
2019-04-01T04:59:32.659Z,7.00
2019-04-01T05:02:01.844Z,7.01
2019-04-01T05:04:31.026Z,7.02
2019-04-01T05:07:00.110Z,7.02
2019-04-01T05:09:29.230Z,7.03
2019-04-01T05:11:58.471Z,7.01
2019-04-01T05:14:27.623Z,7.02
2019-04-01T05:16:56.824Z,7.03
2019-04-01T05:19:26.048Z,7.00
2019-04-01T05:21:55.278Z,7.02
2019-04-01T05:24:24.579Z,6.99
2019-04-01T05:26:53.740Z,7.01
2019-04-01T05:29:22.960Z,7.05
2019-04-01T05:31:52.074Z,7.06
2019-04-01T05:34:21.372Z,7.08
2019-04-01T05:36:50.490Z,7.13
2019-04-01T05:39:19.600Z,7.08
2019-04-01T05:41:48.696Z,7.10
2019-04-01T05:44:18.094Z,7.11
2019-04-01T05:46:47.239Z,7.14
2019-04-01T05:49:17.347Z,7.16
2019-04-01T05:51:46.540Z,7.21
2019-04-01T05:54:15.730Z,7.17
2019-04-01T05:56:44.894Z,7.22
2019-04-01T05:59:14.062Z,7.25
2019-04-01T06:01:45.364Z,7.31
2019-04-01T06:04:14.639Z,7.31
2019-04-01T06:06:43.793Z,7.37
2019-04-01T06:09:12.885Z,7.46
2019-04-01T06:11:41.988Z,7.53
2019-04-01T06:14:11.242Z,7.71
2019-04-01T06:16:40.375Z,7.94
2019-04-01T06:19:09.631Z,8.19
2019-04-01T06:21:38.807Z,8.59
2019-04-01T06:24:08.027Z,9.20
2019-04-01T06:26:39.969Z,9.74
2019-04-01T06:29:09.139Z,10.16
2019-04-01T06:31:38.363Z,10.70
2019-04-01T06:34:07.545Z,11.23
2019-04-01T06:36:38.934Z,11.75
2019-04-01T06:39:08.293Z,12.10
2019-04-01T06:41:37.411Z,12.48
2019-04-01T06:44:06.634Z,12.97
2019-04-01T06:46:37.129Z,13.50
2019-04-01T06:49:06.288Z,14.14
2019-04-01T06:51:35.467Z,14.70
2019-04-01T06:54:04.583Z,15.18
2019-04-01T06:56:33.859Z,15.73
2019-04-01T06:59:05.785Z,16.17
2019-04-01T07:01:35.749Z,16.61
2019-04-01T07:04:04.963Z,17.07
2019-04-01T07:06:34.142Z,17.50
2019-04-01T07:09:04.907Z,17.75
2019-04-01T07:11:34.948Z,18.01
2019-04-01T07:14:04.945Z,18.31
2019-04-01T07:16:34.187Z,18.75
2019-04-01T07:19:03.284Z,19.23
2019-04-01T07:21:32.797Z,19.59
2019-04-01T07:24:01.972Z,19.82
2019-04-01T07:26:31.325Z,20.12
2019-04-01T07:29:00.592Z,20.39
2019-04-01T07:31:29.815Z,20.47
2019-04-01T07:33:58.975Z,19.86
2019-04-01T07:36:28.988Z,20.52
2019-04-01T07:38:58.124Z,20.67
2019-04-01T07:41:28.466Z,20.79
2019-04-01T07:43:57.695Z,21.08
2019-04-01T07:46:27.052Z,21.55
2019-04-01T07:48:56.364Z,22.01
2019-04-01T07:51:25.690Z,22.23
2019-04-01T07:53:54.826Z,22.44
2019-04-01T07:56:24.847Z,22.66
2019-04-01T07:58:54.045Z,22.88
2019-04-01T08:01:23.239Z,23.09
2019-04-01T08:03:52.374Z,23.21
2019-04-01T08:06:21.598Z,23.47
2019-04-01T08:08:50.699Z,23.83
2019-04-01T08:11:19.917Z,24.17
2019-04-01T08:13:49.002Z,24.59
2019-04-01T08:16:18.153Z,24.80
2019-04-01T08:18:47.306Z,24.74
2019-04-01T08:21:16.445Z,25.12
2019-04-01T08:23:45.531Z,25.53
2019-04-01T08:26:14.739Z,25.99
2019-04-01T08:28:43.848Z,26.25
2019-04-01T08:31:13.511Z,26.61
2019-04-01T08:33:42.689Z,27.15
2019-04-01T08:36:11.877Z,27.46
2019-04-01T08:38:41.482Z,27.82
2019-04-01T08:41:10.892Z,28.13
2019-04-01T08:43:40.223Z,28.48
2019-04-01T08:46:09.676Z,28.99
2019-04-01T08:48:39.037Z,29.48
2019-04-01T08:51:08.464Z,29.48
2019-04-01T08:53:37.894Z,29.79
2019-04-01T08:56:07.235Z,29.65
2019-04-01T08:58:36.567Z,29.97
2019-04-01T09:01:05.875Z,30.15
2019-04-01T09:03:35.522Z,30.62
2019-04-01T09:06:05.138Z,31.03
2019-04-01T09:08:34.807Z,31.47
2019-04-01T09:11:04.199Z,31.78
2019-04-01T09:13:33.675Z,32.26
2019-04-01T09:16:03.013Z,32.50
2019-04-01T09:18:32.540Z,32.61
2019-04-01T09:21:02.109Z,32.57
2019-04-01T09:23:31.763Z,33.06
2019-04-01T09:26:01.399Z,33.18
2019-04-01T09:28:30.878Z,33.42
2019-04-01T09:31:00.262Z,33.83
2019-04-01T09:33:29.636Z,34.34
2019-04-01T09:35:59.038Z,34.74
2019-04-01T09:38:29.286Z,35.23
2019-04-01T09:40:58.667Z,35.46
2019-04-01T09:43:27.903Z,35.47
2019-04-01T09:45:57.102Z,35.58
2019-04-01T09:48:26.338Z,35.61
2019-04-01T09:50:55.566Z,35.98
2019-04-01T09:53:24.805Z,36.35
2019-04-01T09:55:53.949Z,36.62
2019-04-01T09:58:23.208Z,37.12
2019-04-01T10:00:53.390Z,37.67
2019-04-01T10:03:22.776Z,38.13
2019-04-01T10:05:52.008Z,38.20
2019-04-01T10:08:21.319Z,38.15
2019-04-01T10:10:50.490Z,38.27
2019-04-01T10:13:19.686Z,38.48
2019-04-01T10:15:48.852Z,38.66
2019-04-01T10:18:18.071Z,38.72
2019-04-01T10:20:47.320Z,39.05
2019-04-01T10:23:16.810Z,39.30
2019-04-01T10:25:46.088Z,39.43
2019-04-01T10:28:15.328Z,39.88
2019-04-01T12:57:41.371Z,24.32
2019-04-01T13:07:12.946Z,23.72
2019-04-01T13:13:15.594Z,23.47
2019-04-01T13:15:57.783Z,23.34
2019-04-01T13:18:26.967Z,23.23
2019-04-01T13:20:56.106Z,23.21
2019-04-01T13:23:25.213Z,23.22
2019-04-01T13:25:54.418Z,23.22
2019-04-01T13:28:24.125Z,23.30
2019-04-01T13:30:53.268Z,23.22
2019-04-01T13:33:22.422Z,23.25
2019-04-01T13:35:52.737Z,23.21
2019-04-01T13:38:22.020Z,23.01
2019-04-01T13:40:51.182Z,22.93
2019-04-01T13:43:20.435Z,22.92
2019-04-01T13:45:50.372Z,22.94
2019-04-01T13:48:19.892Z,23.07
2019-04-01T13:50:49.060Z,23.20
2019-04-01T13:53:18.283Z,23.19
2019-04-01T13:55:50.416Z,23.12
2019-04-01T13:58:19.704Z,23.08
2019-04-01T14:00:49.703Z,22.92
2019-04-01T14:03:22.072Z,22.72
2019-04-01T14:06:18.390Z,22.82
2019-04-01T14:08:50.494Z,22.88
2019-04-01T14:11:23.889Z,22.97
2019-04-01T14:13:55.787Z,22.97
2019-04-01T14:16:28.291Z,23.04
2019-04-01T14:18:59.332Z,22.96
2019-04-01T14:21:31.331Z,22.92
2019-04-01T14:24:01.952Z,22.76
2019-04-01T14:26:31.957Z,22.64
2019-04-01T14:29:03.205Z,22.52
2019-04-01T14:31:36.900Z,22.43
2019-04-01T14:34:13.050Z,22.42
2019-04-01T14:36:38.394Z,22.34
2019-04-01T14:39:07.861Z,22.40
2019-04-01T14:41:37.041Z,22.44
2019-04-01T14:44:06.208Z,22.42
2019-04-01T14:46:35.422Z,22.39
2019-04-01T14:49:04.710Z,22.31
2019-04-01T14:51:33.811Z,22.23
2019-04-01T14:54:03.010Z,22.17
2019-04-01T14:56:32.175Z,22.09
2019-04-01T14:59:01.388Z,21.96
2019-04-01T15:01:30.563Z,22.03
2019-04-01T15:03:59.746Z,21.99
2019-04-01T15:06:29.282Z,21.93
2019-04-01T15:08:58.526Z,21.87
2019-04-01T15:11:27.661Z,21.87
2019-04-01T15:13:59.927Z,21.80
2019-04-01T15:16:27.774Z,21.19
2019-04-01T15:18:57.021Z,21.71
2019-04-01T15:21:26.377Z,21.73
2019-04-01T15:23:55.489Z,21.64
2019-04-01T15:26:24.770Z,21.72
2019-04-01T15:28:53.918Z,21.65
2019-04-01T15:31:23.049Z,21.68
2019-04-01T15:33:52.164Z,21.71
2019-04-01T15:36:21.388Z,21.65
2019-04-01T15:38:51.086Z,21.67
2019-04-01T15:41:20.575Z,21.64
2019-04-01T15:43:49.711Z,21.65
2019-04-01T15:46:18.936Z,21.71
2019-04-01T15:48:48.274Z,21.71
2019-04-01T15:51:17.667Z,21.70
2019-04-01T15:53:46.805Z,21.65
2019-04-01T15:56:15.951Z,21.59
2019-04-01T15:58:45.063Z,21.46
2019-04-01T16:01:14.329Z,21.44
2019-04-01T16:03:43.430Z,21.37
2019-04-01T16:06:12.613Z,21.36
2019-04-01T16:08:41.817Z,21.28
2019-04-01T16:11:11.066Z,21.28
2019-04-01T16:13:40.207Z,21.21
2019-04-01T16:16:09.361Z,21.16
2019-04-01T16:18:38.447Z,21.12
2019-04-01T16:21:07.926Z,21.08
2019-04-01T16:23:37.102Z,21.04
2019-04-01T16:26:09.351Z,20.99
2019-04-01T16:28:37.261Z,20.94
2019-04-01T16:31:06.810Z,20.93
2019-04-01T16:33:36.069Z,20.88
2019-04-01T16:36:06.570Z,20.87
2019-04-01T16:38:36.555Z,20.81
2019-04-01T16:41:05.678Z,20.80
2019-04-01T16:43:38.057Z,20.78
2019-04-01T16:46:05.677Z,20.78
2019-04-01T16:48:34.801Z,20.68
2019-04-01T16:51:03.970Z,20.62
2019-04-01T16:53:33.142Z,20.57
2019-04-01T16:56:02.240Z,20.49
2019-04-01T16:58:31.914Z,20.45
2019-04-01T17:01:02.612Z,20.43
2019-04-01T17:03:31.898Z,20.37
2019-04-01T17:06:01.075Z,20.37
2019-04-01T17:08:30.285Z,20.34
2019-04-01T17:10:59.531Z,20.24
2019-04-01T17:13:30.434Z,20.23
2019-04-01T17:16:01.552Z,20.20
2019-04-01T17:18:31.612Z,20.15
2019-04-01T17:21:00.832Z,20.09
2019-04-01T17:23:30.776Z,20.06
2019-04-01T17:26:00.202Z,19.98
2019-04-01T17:28:29.362Z,19.92
2019-04-01T17:30:58.581Z,19.87
2019-04-01T17:33:28.717Z,19.80
2019-04-01T17:35:57.973Z,19.74
2019-04-01T17:38:27.147Z,19.68
2019-04-01T17:40:56.255Z,19.65
2019-04-01T17:43:25.475Z,19.58
2019-04-01T17:45:54.622Z,19.49
2019-04-01T17:48:23.806Z,19.40
2019-04-01T17:50:52.922Z,19.36
2019-04-01T17:53:22.301Z,19.29
2019-04-01T17:55:51.507Z,19.22
2019-04-01T17:58:20.607Z,19.10
2019-04-01T18:00:57.829Z,18.99
2019-04-01T18:03:26.943Z,18.96
2019-04-01T18:05:56.079Z,18.89
2019-04-01T18:08:25.286Z,18.82
2019-04-01T18:10:54.389Z,18.72
2019-04-01T18:13:23.575Z,18.66
2019-04-01T18:15:52.698Z,18.59
2019-04-01T18:18:26.958Z,18.52
2019-04-01T18:20:53.302Z,18.43
2019-04-01T18:23:22.551Z,18.37
2019-04-01T18:25:51.654Z,18.29
2019-04-01T18:28:20.807Z,18.26
2019-04-01T18:30:50.177Z,18.18
2019-04-01T18:33:20.050Z,18.13
2019-04-01T18:35:49.510Z,18.07
2019-04-01T18:38:18.840Z,18.03
2019-04-01T18:40:48.107Z,17.95
2019-04-01T18:43:19.628Z,17.90
2019-04-01T18:45:49.105Z,17.83
2019-04-01T18:48:19.483Z,17.76
2019-04-01T18:50:49.184Z,17.70
2019-04-01T18:53:18.644Z,17.67
2019-04-01T18:55:48.136Z,17.58
2019-04-01T18:58:17.466Z,17.50
2019-04-01T19:00:47.270Z,17.45
2019-04-01T19:03:19.879Z,17.41
2019-04-01T19:05:49.175Z,17.37
2019-04-01T19:08:18.677Z,17.27
2019-04-01T19:11:02.171Z,17.23
2019-04-01T19:13:26.631Z,17.16
2019-04-01T19:15:56.645Z,17.09
2019-04-01T19:18:26.206Z,17.04
2019-04-01T19:20:57.111Z,16.98
2019-04-01T19:23:26.172Z,16.93
2019-04-01T19:25:55.525Z,16.87
2019-04-01T19:28:24.590Z,16.80
2019-04-01T19:30:53.727Z,16.73
2019-04-01T19:33:22.957Z,16.65
2019-04-01T19:35:52.051Z,16.58
2019-04-01T19:38:21.557Z,16.52
2019-04-01T19:40:51.291Z,16.47
2019-04-01T19:43:21.221Z,16.39
2019-04-01T19:45:50.807Z,16.36
2019-04-01T19:48:19.935Z,16.30
2019-04-01T19:50:49.037Z,16.23
2019-04-01T19:53:18.181Z,16.19
2019-04-01T19:55:47.345Z,16.12
2019-04-01T19:58:16.533Z,16.09
2019-04-01T20:00:45.624Z,16.03
2019-04-01T20:03:14.900Z,15.98
2019-04-01T20:05:44.058Z,15.93
2019-04-01T20:08:14.213Z,15.89
2019-04-01T20:10:43.424Z,15.84
2019-04-01T20:13:12.537Z,15.79
2019-04-01T20:15:41.741Z,15.77
2019-04-01T20:18:10.857Z,15.73
2019-04-01T20:20:41.638Z,15.69
2019-04-01T20:23:11.003Z,15.64
2019-04-01T20:25:40.061Z,15.59
2019-04-01T20:28:09.216Z,15.54
2019-04-01T20:30:38.494Z,15.50
2019-04-01T20:33:17.752Z,15.45
2019-04-01T20:35:38.590Z,15.37
2019-04-01T20:38:07.681Z,15.34
2019-04-01T20:40:36.761Z,15.34
2019-04-01T20:43:05.939Z,15.34
2019-04-01T20:45:35.076Z,15.34
2019-04-01T20:48:04.488Z,15.34
2019-04-01T20:50:33.963Z,15.36
2019-04-01T20:53:03.093Z,15.40
2019-04-01T20:55:32.198Z,15.38
2019-04-01T20:58:01.343Z,15.46
2019-04-01T21:00:30.582Z,15.49
2019-04-01T21:03:01.085Z,15.51
2019-04-01T21:05:30.372Z,15.55
2019-04-01T21:07:59.681Z,15.59
2019-04-01T21:10:28.794Z,15.62
2019-04-01T21:12:57.923Z,15.60
2019-04-01T21:15:27.002Z,15.64
2019-04-01T21:17:56.123Z,15.63
2019-04-01T21:20:25.231Z,15.62
2019-04-01T21:22:54.439Z,15.64
2019-04-01T21:25:23.519Z,15.62
2019-04-01T21:27:53.373Z,15.58
2019-04-01T21:30:22.601Z,15.59
2019-04-01T21:32:51.722Z,15.59
2019-04-01T21:35:20.817Z,15.59
2019-04-01T21:37:49.930Z,15.59
2019-04-01T21:40:19.191Z,15.58
2019-04-01T21:42:48.397Z,15.57
2019-04-01T21:45:17.467Z,15.58
2019-04-01T21:47:46.615Z,15.60
2019-04-01T21:50:15.943Z,15.59
2019-04-01T21:52:45.063Z,15.58
2019-04-01T21:55:14.160Z,15.57
2019-04-01T21:57:43.379Z,15.57
2019-04-01T22:00:14.053Z,15.55
2019-04-01T22:02:44.134Z,15.54
2019-04-01T22:05:13.703Z,15.55
2019-04-01T22:07:44.075Z,15.54
2019-04-01T22:10:13.378Z,15.52
2019-04-01T22:12:42.499Z,15.50
2019-04-01T22:15:11.624Z,15.50
2019-04-01T22:17:42.010Z,15.44
2019-04-01T22:20:11.136Z,15.44
2019-04-01T22:22:40.310Z,15.41
2019-04-01T22:25:09.507Z,15.41
2019-04-01T22:27:38.618Z,15.39
2019-04-01T22:30:08.030Z,15.39
2019-04-01T22:32:37.126Z,15.34
2019-04-01T22:35:07.959Z,15.36
2019-04-01T22:37:38.409Z,15.34
2019-04-01T22:40:07.859Z,15.34
2019-04-01T22:42:36.973Z,15.25
2019-04-01T22:45:06.414Z,15.29
2019-04-01T22:47:35.516Z,15.27
2019-04-01T22:50:04.799Z,15.28
2019-04-01T22:52:35.238Z,15.21
2019-04-01T22:55:05.170Z,15.25
2019-04-01T22:57:34.281Z,15.22
2019-04-01T23:00:03.400Z,15.15
2019-04-01T23:02:40.097Z,15.07
2019-04-01T23:05:09.816Z,15.10
2019-04-01T23:07:39.941Z,15.10
2019-04-01T23:10:09.054Z,15.12
2019-04-01T23:12:38.167Z,15.11
2019-04-01T23:15:07.715Z,15.06
2019-04-01T23:17:38.278Z,15.04
2019-04-01T23:20:08.000Z,15.05
2019-04-01T23:22:37.160Z,15.05
2019-04-01T23:25:06.355Z,15.03
2019-04-01T23:27:35.410Z,15.06
2019-04-01T23:30:06.692Z,15.03
2019-04-01T23:32:35.784Z,15.03
2019-04-01T23:35:05.007Z,15.00
2019-04-01T23:37:34.124Z,14.99
2019-04-01T23:40:03.459Z,14.99
2019-04-01T23:42:32.873Z,14.98
2019-04-01T23:45:01.993Z,14.93
2019-04-01T23:47:31.091Z,14.95
2019-04-01T23:50:00.215Z,14.90
2019-04-01T23:52:29.339Z,14.94
2019-04-01T23:54:59.228Z,14.89
2019-04-01T23:57:29.250Z,14.90
2019-04-01T23:59:58.395Z,14.88
